sensor_id;sensor_type;location;lat;lon;timestamp;pressure;altitude;pressure_sealevel;temperature;humidity
21956;BME280;11142;49.930;8.606;2023-07-20T00:01:16;99886.91;;;19.93;100.00
21956;BME280;11142;49.930;8.606;2023-07-20T00:03:44;99897.78;;;19.90;100.00
21956;BME280;11142;49.930;8.606;2023-07-20T00:06:21;99891.16;;;19.86;100.00
21956;BME280;11142;49.930;8.606;2023-07-20T00:08:52;99892.66;;;19.88;100.00
21956;BME280;11142;49.930;8.606;2023-07-20T00:11:25;99893.66;;;19.87;100.00
21956;BME280;11142;49.930;8.606;2023-07-20T00:13:56;99898.59;;;19.90;100.00
21956;BME280;11142;49.930;8.606;2023-07-20T00:16:25;99897.78;;;19.90;100.00
21956;BME280;11142;49.930;8.606;2023-07-20T00:18:53;99900.72;;;19.87;100.00
21956;BME280;11142;49.930;8.606;2023-07-20T00:21:21;99902.84;;;19.83;100.00
21956;BME280;11142;49.930;8.606;2023-07-20T00:23:49;99897.41;;;19.77;100.00
21956;BME280;11142;49.930;8.606;2023-07-20T00:26:18;99897.06;;;19.72;100.00
21956;BME280;11142;49.930;8.606;2023-07-20T00:28:49;99897.06;;;19.72;100.00
21956;BME280;11142;49.930;8.606;2023-07-20T00:31:18;99891.94;;;19.62;100.00
21956;BME280;11142;49.930;8.606;2023-07-20T00:33:46;99895.34;;;19.54;100.00
21956;BME280;11142;49.930;8.606;2023-07-20T00:36:15;99896.03;;;19.56;100.00
21956;BME280;11142;49.930;8.606;2023-07-20T00:38:43;99890.53;;;19.42;100.00
21956;BME280;11142;49.930;8.606;2023-07-20T00:41:11;99889.03;;;19.39;100.00
21956;BME280;11142;49.930;8.606;2023-07-20T00:43:41;99884.22;;;19.35;100.00
21956;BME280;11142;49.930;8.606;2023-07-20T00:46:10;99886.50;;;19.30;100.00
21956;BME280;11142;49.930;8.606;2023-07-20T00:48:39;99889.91;;;19.22;100.00
21956;BME280;11142;49.930;8.606;2023-07-20T00:51:08;99886.94;;;19.17;100.00
21956;BME280;11142;49.930;8.606;2023-07-20T00:53:38;99896.81;;;19.15;100.00
21956;BME280;11142;49.930;8.606;2023-07-20T00:56:06;99899.25;;;19.08;100.00
21956;BME280;11142;49.930;8.606;2023-07-20T00:58:35;99895.56;;;19.01;100.00
21956;BME280;11142;49.930;8.606;2023-07-20T01:01:06;99902.13;;;18.97;100.00
21956;BME280;11142;49.930;8.606;2023-07-20T01:03:35;99901.59;;;18.94;100.00
21956;BME280;11142;49.930;8.606;2023-07-20T01:06:14;99900.88;;;18.84;100.00
21956;BME280;11142;49.930;8.606;2023-07-20T01:08:43;99900.06;;;18.83;100.00
21956;BME280;11142;49.930;8.606;2023-07-20T01:11:16;99912.19;;;18.76;100.00
21956;BME280;11142;49.930;8.606;2023-07-20T01:13:44;99903.94;;;18.53;100.00
21956;BME280;11142;49.930;8.606;2023-07-20T01:16:14;99908.91;;;18.56;100.00
21956;BME280;11142;49.930;8.606;2023-07-20T01:18:43;99898.91;;;18.60;100.00
21956;BME280;11142;49.930;8.606;2023-07-20T01:21:12;99907.25;;;18.55;100.00
21956;BME280;11142;49.930;8.606;2023-07-20T01:23:50;99902.81;;;18.56;100.00
21956;BME280;11142;49.930;8.606;2023-07-20T01:26:27;99904.53;;;18.47;100.00
21956;BME280;11142;49.930;8.606;2023-07-20T01:29:17;99897.03;;;18.35;100.00
21956;BME280;11142;49.930;8.606;2023-07-20T01:31:51;99897.38;;;18.40;100.00
21956;BME280;11142;49.930;8.606;2023-07-20T01:34:20;99892.22;;;18.30;100.00
21956;BME280;11142;49.930;8.606;2023-07-20T01:36:50;99898.31;;;18.31;100.00
21956;BME280;11142;49.930;8.606;2023-07-20T01:39:20;99894.25;;;18.19;100.00
21956;BME280;11142;49.930;8.606;2023-07-20T01:41:48;99910.75;;;18.11;100.00
21956;BME280;11142;49.930;8.606;2023-07-20T01:44:16;99896.38;;;17.97;100.00
21956;BME280;11142;49.930;8.606;2023-07-20T01:46:47;99903.00;;;17.74;100.00
21956;BME280;11142;49.930;8.606;2023-07-20T01:49:16;99906.88;;;17.70;100.00
21956;BME280;11142;49.930;8.606;2023-07-20T01:51:45;99898.28;;;17.78;100.00
21956;BME280;11142;49.930;8.606;2023-07-20T01:54:12;99900.44;;;17.82;100.00
21956;BME280;11142;49.930;8.606;2023-07-20T01:56:41;99908.56;;;17.89;100.00
21956;BME280;11142;49.930;8.606;2023-07-20T01:59:11;99903.78;;;17.84;100.00
21956;BME280;11142;49.930;8.606;2023-07-20T02:01:39;99902.78;;;17.85;100.00
21956;BME280;11142;49.930;8.606;2023-07-20T02:04:07;99901.97;;;17.85;100.00
21956;BME280;11142;49.930;8.606;2023-07-20T02:06:36;99906.94;;;17.88;100.00
21956;BME280;11142;49.930;8.606;2023-07-20T02:09:05;99909.38;;;17.89;100.00
21956;BME280;11142;49.930;8.606;2023-07-20T02:11:34;99906.41;;;17.84;100.00
21956;BME280;11142;49.930;8.606;2023-07-20T02:14:02;99900.06;;;17.77;100.00
21956;BME280;11142;49.930;8.606;2023-07-20T02:16:29;99897.22;;;17.71;100.00
21956;BME280;11142;49.930;8.606;2023-07-20T02:18:57;99894.81;;;17.60;100.00
21956;BME280;11142;49.930;8.606;2023-07-20T02:21:25;99895.50;;;17.52;100.00
21956;BME280;11142;49.930;8.606;2023-07-20T02:23:54;99895.50;;;17.52;100.00
21956;BME280;11142;49.930;8.606;2023-07-20T02:26:22;99904.88;;;17.54;100.00
21956;BME280;11142;49.930;8.606;2023-07-20T02:28:50;99896.75;;;17.48;100.00
21956;BME280;11142;49.930;8.606;2023-07-20T02:31:18;99896.66;;;17.40;100.00
21956;BME280;11142;49.930;8.606;2023-07-20T02:33:46;99905.66;;;17.37;100.00
21956;BME280;11142;49.930;8.606;2023-07-20T02:36:14;99903.84;;;17.38;100.00
21956;BME280;11142;49.930;8.606;2023-07-20T02:38:44;99902.78;;;17.31;100.00
21956;BME280;11142;49.930;8.606;2023-07-20T02:41:14;99911.91;;;17.27;100.00
21956;BME280;11142;49.930;8.606;2023-07-20T02:43:42;99905.28;;;17.23;100.00
21956;BME280;11142;49.930;8.606;2023-07-20T02:46:10;99901.56;;;17.16;100.00
21956;BME280;11142;49.930;8.606;2023-07-20T02:48:38;99906.03;;;17.15;100.00
21956;BME280;11142;49.930;8.606;2023-07-20T02:51:06;99905.84;;;17.17;100.00
21956;BME280;11142;49.930;8.606;2023-07-20T02:53:35;99905.03;;;17.16;100.00
21956;BME280;11142;49.930;8.606;2023-07-20T02:56:04;99907.66;;;17.16;100.00
21956;BME280;11142;49.930;8.606;2023-07-20T02:58:34;99908.09;;;17.12;100.00
21956;BME280;11142;49.930;8.606;2023-07-20T03:01:03;99915.97;;;17.12;100.00
21956;BME280;11142;49.930;8.606;2023-07-20T03:03:32;99911.97;;;17.08;100.00
21956;BME280;11142;49.930;8.606;2023-07-20T03:06:05;99919.00;;;17.07;100.00
21956;BME280;11142;49.930;8.606;2023-07-20T03:08:35;99913.50;;;17.00;100.00
21956;BME280;11142;49.930;8.606;2023-07-20T03:11:04;99912.00;;;16.98;100.00
21956;BME280;11142;49.930;8.606;2023-07-20T03:13:31;99914.75;;;16.96;100.00
21956;BME280;11142;49.930;8.606;2023-07-20T03:16:01;99911.06;;;16.89;100.00
21956;BME280;11142;49.930;8.606;2023-07-20T03:18:29;99916.84;;;16.93;100.00
21956;BME280;11142;49.930;8.606;2023-07-20T03:20:57;99912.00;;;16.98;100.00
21956;BME280;11142;49.930;8.606;2023-07-20T03:23:25;99914.78;;;16.87;100.00
21956;BME280;11142;49.930;8.606;2023-07-20T03:25:53;99919.59;;;16.91;100.00
21956;BME280;11142;49.930;8.606;2023-07-20T03:28:22;99914.06;;;16.94;100.00
21956;BME280;11142;49.930;8.606;2023-07-20T03:30:52;99920.16;;;16.85;100.00
21956;BME280;11142;49.930;8.606;2023-07-20T03:33:21;99912.72;;;16.81;100.00
21956;BME280;11142;49.930;8.606;2023-07-20T03:35:49;99915.91;;;16.75;100.00
21956;BME280;11142;49.930;8.606;2023-07-20T03:38:17;99916.47;;;16.69;100.00
21956;BME280;11142;49.930;8.606;2023-07-20T03:40:51;99916.63;;;16.67;100.00
21956;BME280;11142;49.930;8.606;2023-07-20T03:43:19;99921.56;;;16.70;100.00
21956;BME280;11142;49.930;8.606;2023-07-20T03:45:47;99922.41;;;16.71;100.00
21956;BME280;11142;49.930;8.606;2023-07-20T03:48:16;99923.66;;;16.67;100.00
21956;BME280;11142;49.930;8.606;2023-07-20T03:50:46;99921.97;;;16.66;100.00
21956;BME280;11142;49.930;8.606;2023-07-20T03:53:15;99913.44;;;16.54;100.00
21956;BME280;11142;49.930;8.606;2023-07-20T03:55:44;99925.59;;;16.55;100.00
21956;BME280;11142;49.930;8.606;2023-07-20T03:58:12;99921.28;;;16.54;100.00
21956;BME280;11142;49.930;8.606;2023-07-20T04:00:43;99927.50;;;16.63;100.00
21956;BME280;11142;49.930;8.606;2023-07-20T04:03:11;99927.22;;;16.66;100.00
21956;BME280;11142;49.930;8.606;2023-07-20T04:05:39;99928.59;;;16.70;100.00
21956;BME280;11142;49.930;8.606;2023-07-20T04:08:08;99931.78;;;16.73;100.00
21956;BME280;11142;49.930;8.606;2023-07-20T04:10:37;99924.88;;;16.72;100.00
21956;BME280;11142;49.930;8.606;2023-07-20T04:13:06;99930.66;;;16.76;100.00
21956;BME280;11142;49.930;8.606;2023-07-20T04:15:33;99923.75;;;16.75;100.00
21956;BME280;11142;49.930;8.606;2023-07-20T04:18:02;99922.38;;;16.90;100.00
21956;BME280;11142;49.930;8.606;2023-07-20T04:20:30;99925.09;;;16.98;100.00
21956;BME280;11142;49.930;8.606;2023-07-20T04:22:58;99932.84;;;16.99;100.00
21956;BME280;11142;49.930;8.606;2023-07-20T04:25:28;99928.25;;;17.11;100.00
21956;BME280;11142;49.930;8.606;2023-07-20T04:27:57;99940.09;;;17.25;100.00
21956;BME280;11142;49.930;8.606;2023-07-20T04:30:25;99943.72;;;17.41;100.00
21956;BME280;11142;49.930;8.606;2023-07-20T04:32:53;99939.13;;;17.53;100.00
21956;BME280;11142;49.930;8.606;2023-07-20T04:38:05;99939.94;;;17.63;100.00
21956;BME280;11142;49.930;8.606;2023-07-20T04:40:35;99940.41;;;17.76;100.00
21956;BME280;11142;49.930;8.606;2023-07-20T04:43:03;99946.72;;;18.11;100.00
21956;BME280;11142;49.930;8.606;2023-07-20T04:45:32;99937.72;;;18.48;100.00
21956;BME280;11142;49.930;8.606;2023-07-20T04:48:00;99942.75;;;18.77;100.00
21956;BME280;11142;49.930;8.606;2023-07-20T04:50:30;99943.84;;;18.92;100.00
21956;BME280;11142;49.930;8.606;2023-07-20T04:52:58;99944.47;;;19.12;100.00
21956;BME280;11142;49.930;8.606;2023-07-20T04:55:26;99950.19;;;19.33;100.00
21956;BME280;11142;49.930;8.606;2023-07-20T04:57:56;99948.19;;;19.53;100.00
21956;BME280;11142;49.930;8.606;2023-07-20T05:00:25;99955.06;;;19.88;100.00
21956;BME280;11142;49.930;8.606;2023-07-20T05:02:53;99957.00;;;20.28;100.00
21956;BME280;11142;49.930;8.606;2023-07-20T05:05:21;99962.63;;;20.57;100.00
21956;BME280;11142;49.930;8.606;2023-07-20T05:07:49;99957.00;;;20.52;100.00
21956;BME280;11142;49.930;8.606;2023-07-20T05:10:18;99964.53;;;20.23;100.00
21956;BME280;11142;49.930;8.606;2023-07-20T05:12:47;99957.06;;;19.94;100.00
21956;BME280;11142;49.930;8.606;2023-07-20T05:15:16;99962.34;;;20.02;100.00
21956;BME280;11142;49.930;8.606;2023-07-20T05:17:44;99960.25;;;20.13;100.00
21956;BME280;11142;49.930;8.606;2023-07-20T05:20:13;99950.53;;;20.22;100.00
21956;BME280;11142;49.930;8.606;2023-07-20T05:22:41;99962.97;;;20.54;100.00
21956;BME280;11142;49.930;8.606;2023-07-20T05:25:10;99962.63;;;20.57;100.00
21956;BME280;11142;49.930;8.606;2023-07-20T05:27:39;99957.50;;;20.72;100.00
21956;BME280;11142;49.930;8.606;2023-07-20T05:30:08;99961.47;;;20.84;100.00
21956;BME280;11142;49.930;8.606;2023-07-20T05:32:37;99964.53;;;21.44;100.00
21956;BME280;11142;49.930;8.606;2023-07-20T05:35:06;99960.25;;;21.35;97.21
21956;BME280;11142;49.930;8.606;2023-07-20T05:37:35;99964.84;;;21.41;97.49
21956;BME280;11142;49.930;8.606;2023-07-20T05:40:04;99963.38;;;21.85;94.35
21956;BME280;11142;49.930;8.606;2023-07-20T05:42:32;99957.09;;;21.86;90.29
21956;BME280;11142;49.930;8.606;2023-07-20T05:45:00;99967.50;;;21.41;95.99
21956;BME280;11142;49.930;8.606;2023-07-20T05:47:29;99963.03;;;21.49;97.68
21956;BME280;11142;49.930;8.606;2023-07-20T05:49:59;99973.53;;;22.04;92.81
21956;BME280;11142;49.930;8.606;2023-07-20T05:52:27;99968.00;;;22.22;88.63
21956;BME280;11142;49.930;8.606;2023-07-20T05:54:56;99966.88;;;22.62;87.22
21956;BME280;11142;49.930;8.606;2023-07-20T05:57:24;99980.13;;;23.22;81.92
21956;BME280;11142;49.930;8.606;2023-07-20T05:59:52;99981.94;;;23.21;81.81
21956;BME280;11142;49.930;8.606;2023-07-20T06:02:20;99979.59;;;23.26;79.13
21956;BME280;11142;49.930;8.606;2023-07-20T06:04:48;99988.53;;;22.88;82.14
21956;BME280;11142;49.930;8.606;2023-07-20T06:07:18;99988.94;;;22.32;87.90
21956;BME280;11142;49.930;8.606;2023-07-20T06:09:46;99996.19;;;22.07;91.76
21956;BME280;11142;49.930;8.606;2023-07-20T06:12:14;99990.88;;;21.68;90.61
21956;BME280;11142;49.930;8.606;2023-07-20T06:14:42;99998.69;;;22.31;92.81
21956;BME280;11142;49.930;8.606;2023-07-20T06:17:10;99996.59;;;21.16;100.00
21956;BME280;11142;49.930;8.606;2023-07-20T06:19:38;99996.06;;;21.92;96.15
21956;BME280;11142;49.930;8.606;2023-07-20T06:22:06;100000.22;;;22.94;85.71
21956;BME280;11142;49.930;8.606;2023-07-20T06:24:36;99994.41;;;23.50;80.88
21956;BME280;11142;49.930;8.606;2023-07-20T06:27:04;99993.66;;;24.00;77.67
21956;BME280;11142;49.930;8.606;2023-07-20T06:29:33;99994.63;;;23.11;81.41
21956;BME280;11142;49.930;8.606;2023-07-20T06:32:00;99995.38;;;23.35;81.62
21956;BME280;11142;49.930;8.606;2023-07-20T06:34:28;99996.97;;;23.06;80.67
21956;BME280;11142;49.930;8.606;2023-07-20T06:36:57;100000.09;;;21.72;93.78
21956;BME280;11142;49.930;8.606;2023-07-20T06:39:25;99998.75;;;21.84;94.71
21956;BME280;11142;49.930;8.606;2023-07-20T06:41:58;99997.56;;;21.79;95.17
21956;BME280;11142;49.930;8.606;2023-07-20T06:44:26;100003.84;;;21.06;100.00
21956;BME280;11142;49.930;8.606;2023-07-20T06:46:54;99997.66;;;21.54;100.00
21956;BME280;11142;49.930;8.606;2023-07-20T06:49:26;99998.75;;;23.14;85.18
21956;BME280;11142;49.930;8.606;2023-07-20T06:51:54;100001.53;;;23.79;78.55
21956;BME280;11142;49.930;8.606;2023-07-20T06:54:22;100000.66;;;23.20;81.14
21956;BME280;11142;49.930;8.606;2023-07-20T06:56:51;100000.78;;;24.14;78.99
21956;BME280;11142;49.930;8.606;2023-07-20T06:59:23;99998.31;;;24.91;70.57
21956;BME280;11142;49.930;8.606;2023-07-20T07:01:52;100009.09;;;23.82;74.91
21956;BME280;11142;49.930;8.606;2023-07-20T07:04:20;100011.84;;;24.96;72.25
21956;BME280;11142;49.930;8.606;2023-07-20T07:06:49;100012.47;;;24.05;72.70
21956;BME280;11142;49.930;8.606;2023-07-20T07:09:17;100015.84;;;22.58;81.17
21956;BME280;11142;49.930;8.606;2023-07-20T07:11:45;100010.69;;;21.64;92.03
21956;BME280;11142;49.930;8.606;2023-07-20T07:14:13;100010.31;;;22.22;91.08
21956;BME280;11142;49.930;8.606;2023-07-20T07:16:44;100012.28;;;22.96;83.81
21956;BME280;11142;49.930;8.606;2023-07-20T07:19:12;100004.16;;;23.35;78.64
21956;BME280;11142;49.930;8.606;2023-07-20T07:21:40;100015.84;;;22.35;84.34
21956;BME280;11142;49.930;8.606;2023-07-20T07:24:09;100014.84;;;21.50;96.35
21956;BME280;11142;49.930;8.606;2023-07-20T07:26:37;100009.31;;;21.76;93.25
21956;BME280;11142;49.930;8.606;2023-07-20T07:29:06;100011.63;;;22.80;84.56
21956;BME280;11142;49.930;8.606;2023-07-20T07:31:34;100016.09;;;23.31;78.81
21956;BME280;11142;49.930;8.606;2023-07-20T07:34:05;100009.31;;;23.66;75.23
21956;BME280;11142;49.930;8.606;2023-07-20T07:36:34;100011.56;;;25.40;66.18
21956;BME280;11142;49.930;8.606;2023-07-20T07:39:03;100008.56;;;23.87;72.23
21956;BME280;11142;49.930;8.606;2023-07-20T07:41:51;100013.72;;;24.39;71.58
21956;BME280;11142;49.930;8.606;2023-07-20T07:44:19;100007.91;;;22.58;80.77
21956;BME280;11142;49.930;8.606;2023-07-20T07:46:48;100011.28;;;22.29;86.73
21956;BME280;11142;49.930;8.606;2023-07-20T07:49:18;100015.38;;;23.22;80.19
21956;BME280;11142;49.930;8.606;2023-07-20T07:51:46;100009.22;;;23.74;75.88
21956;BME280;11142;49.930;8.606;2023-07-20T07:54:15;100010.72;;;26.08;63.56
21956;BME280;11142;49.930;8.606;2023-07-20T07:56:43;100012.78;;;27.52;59.74
21956;BME280;11142;49.930;8.606;2023-07-20T07:59:12;100008.19;;;23.90;69.73
21956;BME280;11142;49.930;8.606;2023-07-20T08:01:41;100011.78;;;22.24;84.77
21956;BME280;11142;49.930;8.606;2023-07-20T08:04:09;100009.31;;;21.76;89.51
21956;BME280;11142;49.930;8.606;2023-07-20T08:06:39;100007.47;;;20.81;100.00
21956;BME280;11142;49.930;8.606;2023-07-20T08:09:08;100011.44;;;21.09;100.00
21956;BME280;11142;49.930;8.606;2023-07-20T08:11:38;100021.16;;;21.96;90.51
21956;BME280;11142;49.930;8.606;2023-07-20T08:14:07;100015.25;;;23.16;80.31
21956;BME280;11142;49.930;8.606;2023-07-20T08:16:36;100020.31;;;26.57;64.90
21956;BME280;11142;49.930;8.606;2023-07-20T08:19:04;100023.84;;;26.90;58.26
21956;BME280;11142;49.930;8.606;2023-07-20T08:21:33;100013.50;;;27.85;56.08
21956;BME280;11142;49.930;8.606;2023-07-20T08:24:04;100023.94;;;26.36;60.27
21956;BME280;11142;49.930;8.606;2023-07-20T08:26:32;100021.41;;;26.82;59.80
21956;BME280;11142;49.930;8.606;2023-07-20T08:29:00;100026.31;;;26.85;58.47
21956;BME280;11142;49.930;8.606;2023-07-20T08:31:29;100014.34;;;26.42;59.86
21956;BME280;11142;49.930;8.606;2023-07-20T08:33:58;100020.78;;;27.32;57.17
21956;BME280;11142;49.930;8.606;2023-07-20T08:36:29;100030.19;;;28.70;54.10
21956;BME280;11142;49.930;8.606;2023-07-20T08:38:58;100022.72;;;30.25;47.69
21956;BME280;11142;49.930;8.606;2023-07-20T08:41:28;100031.38;;;30.69;44.00
21956;BME280;11142;49.930;8.606;2023-07-20T08:43:56;100029.72;;;31.21;44.14
21956;BME280;11142;49.930;8.606;2023-07-20T08:46:25;100023.81;;;33.78;38.03
21956;BME280;11142;49.930;8.606;2023-07-20T08:48:54;100023.66;;;33.68;36.52
21956;BME280;11142;49.930;8.606;2023-07-20T08:51:23;100026.25;;;30.67;41.61
21956;BME280;11142;49.930;8.606;2023-07-20T08:53:52;100022.94;;;27.81;47.86
21956;BME280;11142;49.930;8.606;2023-07-20T08:56:25;100019.00;;;24.96;59.29
21956;BME280;11142;49.930;8.606;2023-07-20T08:58:55;100013.53;;;23.75;68.61
21956;BME280;11142;49.930;8.606;2023-07-20T09:01:24;100012.97;;;25.64;63.59
21956;BME280;11142;49.930;8.606;2023-07-20T09:03:53;100014.13;;;27.81;54.30
21956;BME280;11142;49.930;8.606;2023-07-20T09:06:22;100022.63;;;30.73;46.15
21956;BME280;11142;49.930;8.606;2023-07-20T09:08:52;100024.13;;;32.93;38.10
21956;BME280;11142;49.930;8.606;2023-07-20T09:11:22;100017.38;;;28.40;47.48
21956;BME280;11142;49.930;8.606;2023-07-20T09:14:03;100010.94;;;27.39;51.94
21956;BME280;11142;49.930;8.606;2023-07-20T09:16:31;100016.38;;;29.22;47.35
21956;BME280;11142;49.930;8.606;2023-07-20T09:19:00;100018.34;;;30.84;44.74
21956;BME280;11142;49.930;8.606;2023-07-20T09:21:34;100010.13;;;32.75;38.77
21956;BME280;11142;49.930;8.606;2023-07-20T09:24:03;100017.03;;;32.14;37.99
21956;BME280;11142;49.930;8.606;2023-07-20T09:26:31;100017.22;;;33.31;37.12
21956;BME280;11142;49.930;8.606;2023-07-20T09:29:09;100023.41;;;33.31;37.32
21956;BME280;11142;49.930;8.606;2023-07-20T09:31:38;100022.94;;;31.88;38.30
21956;BME280;11142;49.930;8.606;2023-07-20T09:34:07;100010.38;;;31.07;41.10
21956;BME280;11142;49.930;8.606;2023-07-20T09:36:35;100006.25;;;31.86;37.81
21956;BME280;11142;49.930;8.606;2023-07-20T09:39:07;100011.78;;;33.47;36.04
21956;BME280;11142;49.930;8.606;2023-07-20T09:41:42;100011.13;;;34.71;34.30
21956;BME280;11142;49.930;8.606;2023-07-20T09:44:15;100003.81;;;30.20;38.96
21956;BME280;11142;49.930;8.606;2023-07-20T09:46:46;99995.81;;;31.61;38.61
21956;BME280;11142;49.930;8.606;2023-07-20T09:49:18;100000.69;;;29.50;39.48
21956;BME280;11142;49.930;8.606;2023-07-20T09:51:50;99991.72;;;29.45;41.14
21956;BME280;11142;49.930;8.606;2023-07-20T09:54:21;99985.94;;;27.14;50.43
21956;BME280;11142;49.930;8.606;2023-07-20T09:56:50;99999.66;;;28.84;44.29
21956;BME280;11142;49.930;8.606;2023-07-20T09:59:21;99989.94;;;28.58;44.86
21956;BME280;11142;49.930;8.606;2023-07-20T10:01:49;99986.53;;;27.36;46.64
21956;BME280;11142;49.930;8.606;2023-07-20T10:04:21;99985.25;;;26.33;49.92
21956;BME280;11142;49.930;8.606;2023-07-20T10:06:51;99984.44;;;26.46;50.14
21956;BME280;11142;49.930;8.606;2023-07-20T10:09:22;99980.34;;;26.37;50.81
21956;BME280;11142;49.930;8.606;2023-07-20T10:11:53;99966.44;;;27.33;48.76
21956;BME280;11142;49.930;8.606;2023-07-20T10:14:26;99969.06;;;28.48;45.25
21956;BME280;11142;49.930;8.606;2023-07-20T10:16:57;99968.56;;;28.58;45.78
21956;BME280;11142;49.930;8.606;2023-07-20T10:19:27;99969.41;;;31.70;39.54
21956;BME280;11142;49.930;8.606;2023-07-20T10:22:00;99979.81;;;33.12;33.55
21956;BME280;11142;49.930;8.606;2023-07-20T10:24:30;99971.41;;;31.28;37.80
21956;BME280;11142;49.930;8.606;2023-07-20T10:27:00;99971.50;;;28.19;41.76
21956;BME280;11142;49.930;8.606;2023-07-20T10:29:31;99962.53;;;29.19;43.00
21956;BME280;11142;49.930;8.606;2023-07-20T10:32:00;99960.28;;;29.77;40.32
21956;BME280;11142;49.930;8.606;2023-07-20T10:34:28;99961.13;;;28.35;42.56
21956;BME280;11142;49.930;8.606;2023-07-20T10:36:57;99968.38;;;25.66;49.15
21956;BME280;11142;49.930;8.606;2023-07-20T10:39:26;99971.31;;;26.31;48.47
21956;BME280;11142;49.930;8.606;2023-07-20T10:42:01;99960.28;;;27.39;45.10
21956;BME280;11142;49.930;8.606;2023-07-20T10:44:32;99956.66;;;26.01;47.86
21956;BME280;11142;49.930;8.606;2023-07-20T10:47:03;99961.19;;;24.55;54.16
21956;BME280;11142;49.930;8.606;2023-07-20T10:49:32;99958.47;;;25.19;53.80
21956;BME280;11142;49.930;8.606;2023-07-20T10:52:03;99959.88;;;25.43;53.31
21956;BME280;11142;49.930;8.606;2023-07-20T10:54:48;99949.00;;;24.61;57.12
21956;BME280;11142;49.930;8.606;2023-07-20T11:00:11;99954.38;;;24.25;60.11
21956;BME280;11142;49.930;8.606;2023-07-20T11:02:41;99948.91;;;24.48;59.85
21956;BME280;11142;49.930;8.606;2023-07-20T11:07:53;99952.03;;;24.58;59.67
21956;BME280;11142;49.930;8.606;2023-07-20T11:10:23;99947.19;;;24.40;59.36
21956;BME280;11142;49.930;8.606;2023-07-20T11:16:00;99938.56;;;25.02;56.96
21956;BME280;11142;49.930;8.606;2023-07-20T11:18:34;99947.94;;;26.20;52.40
21956;BME280;11142;49.930;8.606;2023-07-20T11:21:10;99942.84;;;27.37;48.95
21956;BME280;11142;49.930;8.606;2023-07-20T11:23:39;99945.56;;;29.31;44.66
21956;BME280;11142;49.930;8.606;2023-07-20T11:26:08;99958.00;;;31.51;38.00
21956;BME280;11142;49.930;8.606;2023-07-20T11:28:36;99948.13;;;30.11;38.53
21956;BME280;11142;49.930;8.606;2023-07-20T11:31:06;99941.81;;;29.14;41.02
21956;BME280;11142;49.930;8.606;2023-07-20T11:33:34;99941.22;;;31.21;36.08
21956;BME280;11142;49.930;8.606;2023-07-20T11:36:02;99940.69;;;32.10;36.08
21956;BME280;11142;49.930;8.606;2023-07-20T11:38:52;99944.94;;;35.32;30.25
21956;BME280;11142;49.930;8.606;2023-07-20T11:41:21;99945.06;;;31.88;35.16
21956;BME280;11142;49.930;8.606;2023-07-20T11:43:49;99940.94;;;27.64;45.20
21956;BME280;11142;49.930;8.606;2023-07-20T11:46:20;99929.53;;;30.16;39.34
21956;BME280;11142;49.930;8.606;2023-07-20T11:48:55;99948.13;;;32.65;34.65
21956;BME280;11142;49.930;8.606;2023-07-20T11:51:26;99929.38;;;27.83;41.27
21956;BME280;11142;49.930;8.606;2023-07-20T11:53:55;99925.22;;;25.64;47.90
21956;BME280;11142;49.930;8.606;2023-07-20T11:56:25;99926.06;;;25.02;51.44
21956;BME280;11142;49.930;8.606;2023-07-20T11:58:54;99914.84;;;25.75;50.59
21956;BME280;11142;49.930;8.606;2023-07-20T12:01:25;99916.81;;;27.90;45.36
21956;BME280;11142;49.930;8.606;2023-07-20T12:03:57;99917.88;;;32.91;34.47
21956;BME280;11142;49.930;8.606;2023-07-20T12:06:26;99915.16;;;31.56;36.22
21956;BME280;11142;49.930;8.606;2023-07-20T12:08:56;99912.94;;;30.07;38.12
21956;BME280;11142;49.930;8.606;2023-07-20T12:11:31;99918.06;;;33.61;32.65
21956;BME280;11142;49.930;8.606;2023-07-20T12:14:00;99920.97;;;36.78;28.32
21956;BME280;11142;49.930;8.606;2023-07-20T12:16:44;99919.09;;;34.62;30.36
21956;BME280;11142;49.930;8.606;2023-07-20T12:19:20;99910.41;;;29.82;37.42
21956;BME280;11142;49.930;8.606;2023-07-20T12:21:48;99899.47;;;27.74;42.03
21956;BME280;11142;49.930;8.606;2023-07-20T12:24:19;99892.31;;;26.58;46.27
21956;BME280;11142;49.930;8.606;2023-07-20T12:26:47;99896.53;;;27.25;44.86
21956;BME280;11142;49.930;8.606;2023-07-20T12:29:16;99901.63;;;27.39;44.87
21956;BME280;11142;49.930;8.606;2023-07-20T12:31:45;99894.31;;;27.09;46.62
21956;BME280;11142;49.930;8.606;2023-07-20T12:34:14;99887.81;;;28.63;42.22
21956;BME280;11142;49.930;8.606;2023-07-20T12:36:42;99885.34;;;26.37;46.92
21956;BME280;11142;49.930;8.606;2023-07-20T12:39:10;99883.59;;;27.35;45.77
21956;BME280;11142;49.930;8.606;2023-07-20T12:41:38;99883.81;;;28.47;42.27
21956;BME280;11142;49.930;8.606;2023-07-20T12:44:08;99878.94;;;26.06;47.41
21956;BME280;11142;49.930;8.606;2023-07-20T12:46:36;99878.78;;;25.60;49.58
21956;BME280;11142;49.930;8.606;2023-07-20T12:49:06;99881.25;;;26.94;45.18
21956;BME280;11142;49.930;8.606;2023-07-20T12:51:35;99893.66;;;28.96;40.50
21956;BME280;11142;49.930;8.606;2023-07-20T12:54:03;99895.41;;;30.11;37.97
21956;BME280;11142;49.930;8.606;2023-07-20T12:56:31;99888.28;;;30.05;36.73
21956;BME280;11142;49.930;8.606;2023-07-20T12:59:03;99886.38;;;29.46;38.20
21956;BME280;11142;49.930;8.606;2023-07-20T13:01:32;99887.75;;;29.12;37.91
21956;BME280;11142;49.930;8.606;2023-07-20T13:04:01;99884.22;;;28.19;39.92
21956;BME280;11142;49.930;8.606;2023-07-20T13:06:34;99880.22;;;29.75;37.45
21956;BME280;11142;49.930;8.606;2023-07-20T13:09:03;99885.81;;;36.28;29.54
21956;BME280;11142;49.930;8.606;2023-07-20T13:11:31;99899.66;;;40.56;23.20
21956;BME280;11142;49.930;8.606;2023-07-20T13:13:59;99892.19;;;40.29;22.56
21956;BME280;11142;49.930;8.606;2023-07-20T13:16:30;99879.34;;;34.52;28.54